createdAt,value
2018-09-02T00:00:45.373Z,9.20
2018-09-02T00:01:45.385Z,8.30
2018-09-02T00:02:45.405Z,8.30
2018-09-02T00:03:45.431Z,9.10
2018-09-02T00:04:45.369Z,7.80
2018-09-02T00:05:45.372Z,6.70
2018-09-02T00:06:45.375Z,8.40
2018-09-02T00:07:45.369Z,8.40
2018-09-02T00:08:45.401Z,8.10
2018-09-02T00:09:45.370Z,8.60
2018-09-02T00:10:45.369Z,8.90
2018-09-02T00:11:45.367Z,8.10
2018-09-02T00:12:45.395Z,9.30
2018-09-02T00:13:45.369Z,8.00
2018-09-02T00:14:45.368Z,8.50
2018-09-02T00:15:45.366Z,7.90
2018-09-02T00:16:45.367Z,6.90
2018-09-02T00:17:45.396Z,7.40
2018-09-02T00:18:45.395Z,8.80
2018-09-02T00:19:45.360Z,9.10
2018-09-02T00:20:45.373Z,8.80
2018-09-02T00:21:45.364Z,8.50
2018-09-02T00:22:45.367Z,8.80
2018-09-02T00:23:45.511Z,10.80
2018-09-02T00:24:45.370Z,8.50
2018-09-02T00:25:45.368Z,7.90
2018-09-02T00:26:45.364Z,9.60
2018-09-02T00:27:45.361Z,8.40
2018-09-02T00:28:45.390Z,8.50
2018-09-02T00:29:45.360Z,9.10
2018-09-02T00:30:45.358Z,8.50
2018-09-02T00:31:45.385Z,9.20
2018-09-02T00:32:45.361Z,12.60
2018-09-02T00:33:45.437Z,8.60
2018-09-02T00:34:45.368Z,10.40
2018-09-02T00:35:45.359Z,7.10
2018-09-02T00:36:45.359Z,9.10
2018-09-02T00:37:45.358Z,8.70
2018-09-02T00:38:45.382Z,9.50
2018-09-02T00:39:45.364Z,10.60
2018-09-02T00:40:45.527Z,8.00
2018-09-02T00:41:45.353Z,11.40
2018-09-02T00:42:45.355Z,8.80
2018-09-02T00:43:45.386Z,7.80
2018-09-02T00:44:45.355Z,9.60
2018-09-02T00:45:45.352Z,9.20
2018-09-02T00:46:45.355Z,8.70
2018-09-02T00:47:45.351Z,7.70
2018-09-02T00:48:45.380Z,7.30
2018-09-02T00:49:45.351Z,9.30
2018-09-02T00:50:45.356Z,7.60
2018-09-02T00:51:45.354Z,9.20
2018-09-02T00:52:45.349Z,8.40
2018-09-02T00:53:45.388Z,10.00
2018-09-02T00:54:45.370Z,6.90
2018-09-02T00:55:45.348Z,8.20
2018-09-02T00:56:45.408Z,8.00
2018-09-02T00:57:45.346Z,7.80
2018-09-02T00:58:45.376Z,10.10
2018-09-02T00:59:45.336Z,9.10
2018-09-02T01:00:45.345Z,10.30
2018-09-02T01:01:45.420Z,9.80
2018-09-02T01:02:45.345Z,9.10
2018-09-02T01:03:45.372Z,10.30
2018-09-02T01:04:45.346Z,8.70
2018-09-02T01:05:45.349Z,7.80
2018-09-02T01:06:45.346Z,8.60
2018-09-02T01:07:45.343Z,9.90
2018-09-02T01:08:45.389Z,10.00
2018-09-02T01:09:45.376Z,9.50
2018-09-02T01:10:45.342Z,9.30
2018-09-02T01:11:45.343Z,8.20
2018-09-02T01:12:45.347Z,7.30
2018-09-02T01:13:45.373Z,9.60
2018-09-02T01:14:45.339Z,9.00
2018-09-02T01:15:45.339Z,9.40
2018-09-02T01:16:45.339Z,9.20
2018-09-02T01:17:45.334Z,10.60
2018-09-02T01:18:45.363Z,8.60
2018-09-02T01:19:45.342Z,9.00
2018-09-02T01:20:45.339Z,8.50
2018-09-02T01:21:45.344Z,9.10
2018-09-02T01:22:45.337Z,9.70
2018-09-02T01:23:45.368Z,8.90
2018-09-02T01:24:45.335Z,10.70
2018-09-02T01:25:45.343Z,9.60
2018-09-02T01:26:45.338Z,11.20
2018-09-02T01:27:45.341Z,10.10
2018-09-02T01:28:45.364Z,9.60
2018-09-02T01:29:45.338Z,9.60
2018-09-02T01:30:45.335Z,9.10
2018-09-02T01:31:45.328Z,10.60
2018-09-02T01:32:45.333Z,11.40
2018-09-02T01:33:45.357Z,9.70
2018-09-02T01:34:45.335Z,11.40
2018-09-02T01:35:45.333Z,10.00
2018-09-02T01:36:45.326Z,9.70
2018-09-02T01:37:45.329Z,11.40
2018-09-02T01:38:45.360Z,10.20
2018-09-02T01:39:45.331Z,13.10
2018-09-02T01:40:45.332Z,11.60
2018-09-02T01:41:45.332Z,12.20
2018-09-02T01:42:45.355Z,13.30
2018-09-02T01:43:45.323Z,11.40
2018-09-02T01:44:45.326Z,10.90
2018-09-02T01:45:45.336Z,11.90
2018-09-02T01:46:45.326Z,15.10
2018-09-02T01:47:45.356Z,11.10
2018-09-02T01:48:45.323Z,12.60
2018-09-02T01:49:45.323Z,12.40
2018-09-02T01:50:45.326Z,13.10
2018-09-02T01:51:45.322Z,12.60
2018-09-02T01:52:45.348Z,12.50
2018-09-02T01:53:45.323Z,15.40
2018-09-02T01:54:45.317Z,15.10
2018-09-02T01:55:46.045Z,14.90
2018-09-02T01:56:48.056Z,13.90
2018-09-02T01:57:46.209Z,14.90
2018-09-02T01:58:47.766Z,13.80
2018-09-02T01:59:46.048Z,17.00
2018-09-02T02:00:45.318Z,16.40
2018-09-02T02:01:45.312Z,17.40
2018-09-02T02:02:45.317Z,16.20
2018-09-02T02:03:45.341Z,17.30
2018-09-02T02:04:45.314Z,19.30
2018-09-02T02:05:45.310Z,22.70
2018-09-02T02:06:45.319Z,19.20
2018-09-02T02:07:45.309Z,16.80
2018-09-02T02:08:45.346Z,18.80
2018-09-02T02:09:47.237Z,20.70
2018-09-02T02:10:45.316Z,19.80
2018-09-02T02:11:46.054Z,21.10
2018-09-02T02:12:46.562Z,17.10
2018-09-02T02:13:45.514Z,20.10
2018-09-02T02:14:49.487Z,21.50
2018-09-02T02:15:45.305Z,18.40
2018-09-02T02:16:45.308Z,21.10
2018-09-02T02:17:45.313Z,19.10
2018-09-02T02:18:45.339Z,19.20
2018-09-02T02:19:45.304Z,21.70
2018-09-02T02:20:45.308Z,21.20
2018-09-02T02:21:45.297Z,19.60
2018-09-02T02:22:45.305Z,19.80
2018-09-02T02:23:45.738Z,23.60
2018-09-02T02:24:45.299Z,22.30
2018-09-02T02:25:45.300Z,21.50
2018-09-02T02:26:45.303Z,22.40
2018-09-02T02:27:45.298Z,23.80
2018-09-02T02:28:45.320Z,19.40
2018-09-02T02:29:45.289Z,20.80
2018-09-02T02:30:45.300Z,20.10
2018-09-02T02:31:45.297Z,20.10
2018-09-02T02:32:45.300Z,23.20
2018-09-02T02:33:45.321Z,23.70
2018-09-02T02:34:45.294Z,19.70
2018-09-02T02:35:45.305Z,20.30
2018-09-02T02:36:45.290Z,22.70
2018-09-02T02:37:45.332Z,21.40
2018-09-02T02:38:45.287Z,20.90
2018-09-02T02:39:45.283Z,18.10
2018-09-02T02:40:45.317Z,20.80
2018-09-02T02:41:45.284Z,20.40
2018-09-02T02:42:45.285Z,19.30
2018-09-02T02:43:45.315Z,21.50
2018-09-02T02:44:45.291Z,16.30
2018-09-02T02:45:45.278Z,21.40
2018-09-02T02:46:45.277Z,16.10
2018-09-02T02:47:45.276Z,18.20
2018-09-02T02:48:45.308Z,19.00
2018-09-02T02:49:45.268Z,20.70
2018-09-02T02:50:45.271Z,18.70
2018-09-02T02:51:45.267Z,18.50
2018-09-02T02:52:45.295Z,20.20
2018-09-02T02:53:45.277Z,18.90
2018-09-02T02:54:45.269Z,18.50
2018-09-02T02:55:45.329Z,23.70
2018-09-02T02:56:45.264Z,16.50
2018-09-02T02:57:45.291Z,17.00
2018-09-02T02:58:45.260Z,19.80
2018-09-02T02:59:45.260Z,20.70
2018-09-02T03:00:45.287Z,17.90
2018-09-02T03:01:45.260Z,18.50
2018-09-02T03:02:45.261Z,19.40
2018-09-02T03:03:45.261Z,19.50
2018-09-02T03:04:45.257Z,18.60
2018-09-02T03:05:45.290Z,18.60
2018-09-02T03:06:45.253Z,20.90
2018-09-02T03:07:45.252Z,20.60
2018-09-02T03:08:45.278Z,20.60
2018-09-02T03:09:45.252Z,21.60
2018-09-02T03:10:45.278Z,21.40
2018-09-02T03:11:45.251Z,21.00
2018-09-02T03:12:45.249Z,20.40
2018-09-02T03:13:45.274Z,20.90
2018-09-02T03:14:45.246Z,21.80
2018-09-02T03:15:45.243Z,23.30
2018-09-02T03:16:45.242Z,22.00
2018-09-02T03:17:46.061Z,23.00
2018-09-02T03:18:46.283Z,24.10
2018-09-02T03:19:45.418Z,22.20
2018-09-02T03:20:46.154Z,24.50
2018-09-02T03:21:45.241Z,23.50
2018-09-02T03:22:45.263Z,23.00
2018-09-02T03:23:45.235Z,23.90
2018-09-02T03:24:45.234Z,24.30
2018-09-02T03:25:45.232Z,23.50
2018-09-02T03:26:45.228Z,20.20
2018-09-02T03:27:45.256Z,23.30
2018-09-02T03:28:45.237Z,23.10
2018-09-02T03:29:45.231Z,22.90
2018-09-02T03:30:45.407Z,23.20
2018-09-02T03:31:45.224Z,24.70
2018-09-02T03:32:45.257Z,24.20
2018-09-02T03:33:45.225Z,28.10
2018-09-02T03:34:45.229Z,24.30
2018-09-02T03:35:45.220Z,24.60
2018-09-02T03:36:45.220Z,24.10
2018-09-02T03:37:45.246Z,21.60
2018-09-02T03:38:45.215Z,23.70
2018-09-02T03:39:45.218Z,22.90
2018-09-02T03:40:45.218Z,21.30
2018-09-02T03:41:45.217Z,22.80
2018-09-02T03:42:45.242Z,22.80
2018-09-02T03:43:45.214Z,25.10
2018-09-02T03:44:45.213Z,22.10
2018-09-02T03:45:45.208Z,23.90
2018-09-02T03:46:45.238Z,22.40
2018-09-02T03:47:45.206Z,20.50
2018-09-02T03:48:45.241Z,20.60
2018-09-02T03:49:45.207Z,20.60
2018-09-02T03:50:45.202Z,20.00
2018-09-02T03:51:45.205Z,21.30
2018-09-02T03:52:45.231Z,21.80
2018-09-02T03:53:45.201Z,20.50
2018-09-02T03:54:45.200Z,17.50
2018-09-02T03:55:45.205Z,18.80
2018-09-02T03:56:45.228Z,19.70
2018-09-02T03:57:45.201Z,21.10
2018-09-02T03:58:45.225Z,18.70
2018-09-02T03:59:45.196Z,23.90
2018-09-02T04:00:45.190Z,20.20
2018-09-02T04:01:45.196Z,23.10
2018-09-02T04:02:45.195Z,18.50
2018-09-02T04:03:45.217Z,18.80
2018-09-02T04:04:45.189Z,17.30
2018-09-02T04:05:45.188Z,24.20
2018-09-02T04:06:45.182Z,17.50
2018-09-02T04:07:45.210Z,18.10
2018-09-02T04:08:45.190Z,18.20
2018-09-02T04:09:45.181Z,17.90
2018-09-02T04:10:46.810Z,17.70
2018-09-02T04:11:45.187Z,19.20
2018-09-02T04:12:45.210Z,16.40
2018-09-02T04:13:45.174Z,16.80
2018-09-02T04:14:45.179Z,15.20
2018-09-02T04:15:45.175Z,17.00
2018-09-02T04:16:45.170Z,18.80
2018-09-02T04:17:45.202Z,19.40
2018-09-02T04:18:45.172Z,14.60
2018-09-02T04:19:45.174Z,14.40
2018-09-02T04:20:45.169Z,15.50
2018-09-02T04:21:45.174Z,16.50
2018-09-02T04:22:45.199Z,16.50
2018-09-02T04:23:45.168Z,18.40
2018-09-02T04:24:45.166Z,20.10
2018-09-02T04:25:45.164Z,14.00
2018-09-02T04:26:45.165Z,17.60
2018-09-02T04:27:45.193Z,15.20
2018-09-02T04:28:45.160Z,15.70
2018-09-02T04:29:45.160Z,16.10
2018-09-02T04:30:45.161Z,16.20
2018-09-02T04:31:45.160Z,14.70
2018-09-02T04:32:45.181Z,13.40
2018-09-02T04:33:45.178Z,15.70
2018-09-02T04:34:45.156Z,15.00
2018-09-02T04:35:45.160Z,16.70
2018-09-02T04:36:45.181Z,15.90
2018-09-02T04:37:45.154Z,12.50
2018-09-02T04:38:45.175Z,13.50
2018-09-02T04:39:45.155Z,14.50
2018-09-02T04:40:45.143Z,12.30
2018-09-02T04:41:45.142Z,14.40
2018-09-02T04:42:45.146Z,12.90
2018-09-02T04:43:45.170Z,11.30
2018-09-02T04:44:45.141Z,11.60
2018-09-02T04:45:45.138Z,15.60
2018-09-02T04:46:45.143Z,12.40
2018-09-02T04:47:45.139Z,12.10
2018-09-02T04:48:45.167Z,12.60
2018-09-02T04:49:45.141Z,14.10
2018-09-02T04:50:45.150Z,12.00
2018-09-02T04:51:45.145Z,13.80
2018-09-02T04:52:45.133Z,12.70
2018-09-02T04:53:45.159Z,12.00
2018-09-02T04:54:45.131Z,15.90
2018-09-02T04:55:45.132Z,13.20
2018-09-02T04:56:45.123Z,13.00
2018-09-02T04:57:45.126Z,14.00
2018-09-02T04:58:45.157Z,12.60
2018-09-02T04:59:45.123Z,13.40
2018-09-02T05:00:45.123Z,13.40
2018-09-02T05:01:45.125Z,14.40
2018-09-02T05:02:45.156Z,12.90
2018-09-02T05:03:45.134Z,13.70
2018-09-02T05:04:45.120Z,12.80
2018-09-02T05:05:45.117Z,10.30
2018-09-02T05:06:45.116Z,11.80
2018-09-02T05:07:45.142Z,12.80
2018-09-02T05:08:45.113Z,12.20
2018-09-02T05:09:45.113Z,10.90
2018-09-02T05:10:45.116Z,12.50
2018-09-02T05:11:45.142Z,12.00
2018-09-02T05:12:45.109Z,10.60
2018-09-02T05:13:45.137Z,11.70
2018-09-02T05:14:45.109Z,10.20
2018-09-02T05:15:45.106Z,9.80
2018-09-02T05:16:45.103Z,11.70
2018-09-02T05:17:45.131Z,12.60
2018-09-02T05:18:45.102Z,12.20
2018-09-02T05:19:45.102Z,13.40
2018-09-02T05:20:45.100Z,13.50
2018-09-02T05:21:45.104Z,11.70
2018-09-02T05:22:45.135Z,10.10
2018-09-02T05:23:45.094Z,10.80
2018-09-02T05:24:45.100Z,10.30
2018-09-02T05:25:45.095Z,11.60
2018-09-02T05:26:45.098Z,9.90
2018-09-02T05:27:45.127Z,9.10
2018-09-02T05:28:45.088Z,8.80
2018-09-02T05:29:45.093Z,8.40
2018-09-02T05:30:45.092Z,9.40
2018-09-02T05:31:45.090Z,10.00
2018-09-02T05:32:45.116Z,8.10
2018-09-02T05:33:45.090Z,13.30
2018-09-02T05:34:45.088Z,9.20
2018-09-02T05:35:45.088Z,7.90
2018-09-02T05:36:45.098Z,8.30
2018-09-02T05:37:45.113Z,9.90
2018-09-02T05:38:45.083Z,10.30
2018-09-02T05:39:45.081Z,9.40
2018-09-02T05:40:45.080Z,10.50
2018-09-02T05:41:45.105Z,11.70
2018-09-02T05:42:45.106Z,9.70
2018-09-02T05:43:45.077Z,11.60
2018-09-02T05:44:45.074Z,12.30
2018-09-02T05:45:45.075Z,9.30
2018-09-02T05:46:45.073Z,8.00
2018-09-02T05:47:45.105Z,11.60
2018-09-02T05:48:45.099Z,9.60
2018-09-02T05:49:45.070Z,15.00
2018-09-02T05:50:45.163Z,11.00
2018-09-02T05:51:45.069Z,11.30
2018-09-02T05:52:45.067Z,9.80
2018-09-02T05:53:45.091Z,9.70
2018-09-02T05:54:45.069Z,9.30
2018-09-02T05:55:45.062Z,10.20
2018-09-02T05:56:45.065Z,11.90
2018-09-02T05:57:45.158Z,12.60
2018-09-02T05:58:45.066Z,9.40
2018-09-02T05:59:45.060Z,10.20
2018-09-02T06:00:45.057Z,13.40
2018-09-02T06:01:45.056Z,9.10
2018-09-02T06:02:45.133Z,11.70
2018-09-02T06:03:45.055Z,10.80
2018-09-02T06:04:45.058Z,12.40
2018-09-02T06:05:45.056Z,12.30
2018-09-02T06:06:45.060Z,8.10
2018-09-02T06:07:45.088Z,12.30
2018-09-02T06:08:45.050Z,11.00
2018-09-02T06:09:45.045Z,11.90
2018-09-02T06:10:45.049Z,12.70
2018-09-02T06:11:45.051Z,11.40
2018-09-02T06:12:45.077Z,11.60
2018-09-02T06:13:45.046Z,9.40
2018-09-02T06:14:45.048Z,11.90
2018-09-02T06:15:45.045Z,12.20
2018-09-02T06:16:45.067Z,10.80
2018-09-02T06:17:45.094Z,10.60
2018-09-02T06:18:45.034Z,10.90
2018-09-02T06:19:45.039Z,12.40
2018-09-02T06:20:45.061Z,15.60
2018-09-02T06:21:45.034Z,11.10
2018-09-02T06:22:45.130Z,10.10
2018-09-02T06:23:45.035Z,11.30
2018-09-02T06:24:45.038Z,12.90
2018-09-02T06:25:45.038Z,11.00
2018-09-02T06:26:45.058Z,10.80
2018-09-02T06:27:45.023Z,13.20
2018-09-02T06:28:45.027Z,10.20
2018-09-02T06:29:45.032Z,9.70
2018-09-02T06:30:45.027Z,11.70
2018-09-02T06:31:45.059Z,14.50
2018-09-02T06:32:45.093Z,13.10
2018-09-02T06:33:45.023Z,13.30
2018-09-02T06:34:45.023Z,13.60
2018-09-02T06:35:45.023Z,13.40
2018-09-02T06:36:45.057Z,13.30
2018-09-02T06:37:45.047Z,10.50
2018-09-02T06:38:45.017Z,11.20
2018-09-02T06:39:45.016Z,14.60
2018-09-02T06:40:45.016Z,14.10
2018-09-02T06:41:45.024Z,10.40
2018-09-02T06:42:45.056Z,11.40
2018-09-02T06:43:45.016Z,12.10
2018-09-02T06:44:45.012Z,17.70
2018-09-02T06:45:45.091Z,11.50
2018-09-02T06:46:45.018Z,10.30
2018-09-02T06:47:45.036Z,15.20
2018-09-02T06:48:45.009Z,15.50
2018-09-02T06:49:45.009Z,14.70
2018-09-02T06:50:45.009Z,13.20
2018-09-02T06:51:45.011Z,12.40
2018-09-02T06:52:45.033Z,13.70
2018-09-02T06:53:45.009Z,12.80
2018-09-02T06:54:44.999Z,12.80
2018-09-02T06:55:45.004Z,14.80
2018-09-02T06:56:45.006Z,10.20
2018-09-02T06:57:45.045Z,16.20
2018-09-02T06:58:45.137Z,15.20
2018-09-02T06:59:44.998Z,17.90
2018-09-02T07:00:44.996Z,17.10
2018-09-02T07:01:45.028Z,17.90
2018-09-02T07:02:44.995Z,15.80
2018-09-02T07:03:45.023Z,17.00
2018-09-02T07:04:44.996Z,15.20
2018-09-02T07:05:44.994Z,15.30
2018-09-02T07:06:45.025Z,19.70
2018-09-02T07:07:45.024Z,16.50
2018-09-02T07:08:44.984Z,15.10
2018-09-02T07:09:44.987Z,14.90
2018-09-02T07:10:44.988Z,14.40
2018-09-02T07:11:44.983Z,14.70
2018-09-02T07:12:45.015Z,14.90
2018-09-02T07:13:44.986Z,14.70
2018-09-02T07:14:44.985Z,13.80
2018-09-02T07:15:44.985Z,13.70
2018-09-02T07:16:44.985Z,12.20
2018-09-02T07:17:44.995Z,16.70
2018-09-02T07:18:45.013Z,11.80
2018-09-02T07:19:44.976Z,11.50
2018-09-02T07:20:44.984Z,12.70
2018-09-02T07:21:44.994Z,12.10
2018-09-02T07:22:44.973Z,14.10
2018-09-02T07:23:45.011Z,14.10
2018-09-02T07:24:44.986Z,13.70
2018-09-02T07:25:44.974Z,13.50
2018-09-02T07:26:44.973Z,9.50
2018-09-02T07:27:44.971Z,12.10
2018-09-02T07:28:45.002Z,10.60
2018-09-02T07:29:44.965Z,11.90
2018-09-02T07:30:44.969Z,12.70
2018-09-02T07:31:44.969Z,10.60
2018-09-02T07:32:44.999Z,8.80
2018-09-02T07:33:44.964Z,9.00
2018-09-02T07:34:44.962Z,11.20
2018-09-02T07:35:44.964Z,11.60
2018-09-02T07:36:44.984Z,11.30
2018-09-02T07:37:44.989Z,8.90
2018-09-02T07:38:44.966Z,8.10
2018-09-02T07:39:44.955Z,8.30
2018-09-02T07:40:44.960Z,8.50
2018-09-02T07:41:44.958Z,10.10
2018-09-02T07:42:44.980Z,8.40
2018-09-02T07:43:45.040Z,10.10
2018-09-02T07:44:44.955Z,9.70
2018-09-02T07:45:44.951Z,9.10
2018-09-02T07:46:44.947Z,10.20
2018-09-02T07:47:44.979Z,9.30
2018-09-02T07:48:44.949Z,10.60
2018-09-02T07:49:44.943Z,9.70
2018-09-02T07:50:44.945Z,10.40
2018-09-02T07:51:44.944Z,9.90
2018-09-02T07:52:44.968Z,7.30
2018-09-02T07:53:44.960Z,8.80
2018-09-02T07:54:44.946Z,10.80
2018-09-02T07:55:44.933Z,9.20
2018-09-02T07:56:44.938Z,10.40
2018-09-02T07:57:44.965Z,9.30
2018-09-02T07:58:44.962Z,9.70
2018-09-02T07:59:44.938Z,8.60
2018-09-02T08:00:44.939Z,10.10
2018-09-02T08:01:44.933Z,9.40
2018-09-02T08:02:45.032Z,8.10
2018-09-02T08:03:44.930Z,8.40
2018-09-02T08:04:44.929Z,8.00
2018-09-02T08:05:44.926Z,11.60
2018-09-02T08:06:44.927Z,8.70
2018-09-02T08:07:44.950Z,8.80
2018-09-02T08:08:44.921Z,9.20
2018-09-02T08:09:44.923Z,8.70
2018-09-02T08:10:45.716Z,8.00
2018-09-02T08:11:44.925Z,8.00
2018-09-02T08:12:45.172Z,10.50
2018-09-02T08:13:44.919Z,8.10
2018-09-02T08:14:44.924Z,6.90
2018-09-02T08:15:44.918Z,7.50
2018-09-02T08:16:44.916Z,8.10
2018-09-02T08:17:44.943Z,8.40
2018-09-02T08:18:44.914Z,6.80
2018-09-02T08:19:44.945Z,7.20
2018-09-02T08:20:44.912Z,6.80
2018-09-02T08:21:44.939Z,8.10
2018-09-02T08:22:44.912Z,8.80
2018-09-02T08:23:44.936Z,8.80
2018-09-02T08:24:44.922Z,7.20
2018-09-02T08:25:44.903Z,6.50
2018-09-02T08:26:44.953Z,6.40
2018-09-02T08:27:44.934Z,6.40
2018-09-02T08:28:44.913Z,6.90
2018-09-02T08:29:44.910Z,7.20
2018-09-02T08:30:44.903Z,6.90
2018-09-02T08:31:44.936Z,6.70
2018-09-02T08:32:44.902Z,7.20
2018-09-02T08:33:44.906Z,7.10
2018-09-02T08:34:44.898Z,6.10
2018-09-02T08:35:44.896Z,5.90
2018-09-02T08:36:44.931Z,5.90
2018-09-02T08:37:44.897Z,5.60
2018-09-02T08:38:44.935Z,5.80
2018-09-02T08:39:44.899Z,6.30
2018-09-02T08:40:44.890Z,6.20
2018-09-02T08:41:44.920Z,7.40
2018-09-02T08:42:44.895Z,6.90
2018-09-02T08:43:44.887Z,5.90
2018-09-02T08:44:44.891Z,7.40
2018-09-02T08:45:44.890Z,5.40
2018-09-02T08:46:44.914Z,5.30
2018-09-02T08:47:44.886Z,5.90
2018-09-02T08:48:44.885Z,5.80
2018-09-02T08:49:44.888Z,5.30
2018-09-02T08:50:44.900Z,5.50
2018-09-02T08:51:44.912Z,6.80
2018-09-02T08:52:44.892Z,5.80
2018-09-02T08:53:44.886Z,6.00
2018-09-02T08:54:44.923Z,5.60
2018-09-02T08:55:44.884Z,5.60
2018-09-02T08:56:44.908Z,5.90
2018-09-02T08:57:44.876Z,5.40
2018-09-02T08:58:44.879Z,5.80
2018-09-02T08:59:44.874Z,4.50
2018-09-02T09:00:44.876Z,4.80
2018-09-02T09:01:44.919Z,4.80
2018-09-02T09:02:44.876Z,4.90
2018-09-02T09:03:44.872Z,5.10
2018-09-02T09:04:44.868Z,5.30
2018-09-02T09:05:44.873Z,4.50
2018-09-02T09:06:44.904Z,4.70
2018-09-02T09:07:44.986Z,4.70
2018-09-02T09:08:45.132Z,4.30
2018-09-02T09:09:44.873Z,4.70
2018-09-02T09:10:44.869Z,4.30
2018-09-02T09:11:44.897Z,4.60
2018-09-02T09:12:44.870Z,4.50
2018-09-02T09:13:44.873Z,4.30
2018-09-02T09:14:44.870Z,4.20
2018-09-02T09:15:44.866Z,4.00
2018-09-02T09:16:44.951Z,3.80
2018-09-02T09:17:44.865Z,3.60
2018-09-02T09:18:44.865Z,3.70
2018-09-02T09:19:44.870Z,3.50
2018-09-02T09:20:44.869Z,2.90
2018-09-02T09:21:45.000Z,3.20
2018-09-02T09:22:44.943Z,3.10
2018-09-02T09:23:44.863Z,3.40
2018-09-02T09:24:44.862Z,3.50
2018-09-02T09:25:44.864Z,3.70
2018-09-02T09:26:44.892Z,3.00
2018-09-02T09:27:44.863Z,3.40
2018-09-02T09:28:44.859Z,3.30
2018-09-02T09:29:44.861Z,3.20
2018-09-02T09:30:44.860Z,3.10
2018-09-02T09:31:44.888Z,3.30
2018-09-02T09:32:44.861Z,3.40
2018-09-02T09:33:44.874Z,3.00
2018-09-02T09:34:44.870Z,3.80
2018-09-02T09:35:44.876Z,3.00
2018-09-02T09:36:44.884Z,3.00
2018-09-02T09:37:44.859Z,3.60
2018-09-02T09:38:44.862Z,3.30
2018-09-02T09:39:44.853Z,3.50
2018-09-02T09:40:44.856Z,3.50
2018-09-02T09:41:44.885Z,3.70
2018-09-02T09:42:44.857Z,3.30
2018-09-02T09:43:44.853Z,3.60
2018-09-02T09:44:44.857Z,2.80
2018-09-02T09:45:44.881Z,3.00
2018-09-02T09:46:44.855Z,3.20
2018-09-02T09:47:44.853Z,2.90
2018-09-02T09:48:44.851Z,2.60
2018-09-02T09:49:44.854Z,2.80
2018-09-02T09:50:44.888Z,2.80
2018-09-02T09:51:44.847Z,2.80
2018-09-02T09:52:44.853Z,2.70
2018-09-02T09:53:44.854Z,2.90
2018-09-02T09:54:44.850Z,2.90
2018-09-02T09:55:44.915Z,2.70
2018-09-02T09:56:44.851Z,2.80
2018-09-02T09:57:44.853Z,2.80
2018-09-02T09:58:44.848Z,2.50
2018-09-02T09:59:44.853Z,2.60
2018-09-02T10:00:44.875Z,2.60
2018-09-02T10:01:44.855Z,2.90
2018-09-02T10:02:44.843Z,2.70
2018-09-02T10:03:44.877Z,2.70
2018-09-02T10:04:44.847Z,2.60
2018-09-02T10:05:44.880Z,2.40
2018-09-02T10:06:44.849Z,2.50
2018-09-02T10:07:44.845Z,2.50
2018-09-02T10:08:44.847Z,2.40
2018-09-02T10:09:44.845Z,2.30
2018-09-02T10:10:44.875Z,2.60
2018-09-02T10:11:44.913Z,2.60
2018-09-02T10:12:44.848Z,2.70
2018-09-02T10:13:44.904Z,2.70
2018-09-02T10:14:44.849Z,2.50
2018-09-02T10:15:44.869Z,2.90
2018-09-02T10:16:44.848Z,2.30
2018-09-02T10:17:44.856Z,2.40
2018-09-02T10:18:44.845Z,2.00
2018-09-02T10:19:44.845Z,2.20
2018-09-02T10:20:44.873Z,2.10
2018-09-02T10:21:44.842Z,2.00
2018-09-02T10:22:44.846Z,2.20
2018-09-02T10:23:44.845Z,2.40
2018-09-02T10:24:44.851Z,2.30
2018-09-02T10:25:44.885Z,2.10
2018-09-02T10:26:44.846Z,2.30
2018-09-02T10:27:44.842Z,2.40
2018-09-02T10:28:44.853Z,2.50
2018-09-02T10:29:44.844Z,2.20
2018-09-02T10:30:44.876Z,2.50
2018-09-02T10:31:44.843Z,2.80
2018-09-02T10:32:44.843Z,2.70
2018-09-02T10:33:44.844Z,2.50
2018-09-02T10:34:44.844Z,2.10
2018-09-02T10:35:45.360Z,2.40
2018-09-02T10:36:44.847Z,2.40
2018-09-02T10:37:44.844Z,2.30
2018-09-02T10:38:44.875Z,2.30
2018-09-02T10:39:44.844Z,2.30
2018-09-02T10:40:44.869Z,2.40
2018-09-02T10:41:44.845Z,2.40
2018-09-02T10:42:44.844Z,3.20
2018-09-02T10:43:44.833Z,2.60
2018-09-02T10:44:44.840Z,2.50
2018-09-02T10:45:44.873Z,2.10
2018-09-02T10:46:44.841Z,2.30
2018-09-02T10:47:44.840Z,2.20
2018-09-02T10:48:44.840Z,2.30
2018-09-02T10:49:44.873Z,2.50
2018-09-02T10:50:44.871Z,2.40
2018-09-02T10:51:44.841Z,2.20
2018-09-02T10:52:44.863Z,2.20
2018-09-02T10:53:44.842Z,2.20
2018-09-02T10:54:44.840Z,2.40
2018-09-02T10:55:44.872Z,2.60
2018-09-02T10:56:44.869Z,2.50
2018-09-02T10:57:44.839Z,2.50
2018-09-02T10:58:44.847Z,3.00
2018-09-02T10:59:44.922Z,2.30
2018-09-02T11:00:44.838Z,2.80
2018-09-02T11:01:44.870Z,2.50
2018-09-02T11:02:44.841Z,2.70
2018-09-02T11:03:45.169Z,3.30
2018-09-02T11:04:44.838Z,2.90
2018-09-02T11:05:44.867Z,2.90
2018-09-02T11:06:44.841Z,3.20
2018-09-02T11:07:44.923Z,3.20
2018-09-02T11:08:44.889Z,3.20
2018-09-02T11:09:44.838Z,3.30
2018-09-02T11:10:44.867Z,3.50
2018-09-02T11:11:44.868Z,3.60
2018-09-02T11:12:44.843Z,3.40
2018-09-02T11:13:44.941Z,3.60
2018-09-02T11:14:44.836Z,3.70
2018-09-02T11:15:44.832Z,3.70
2018-09-02T11:16:44.863Z,3.70
2018-09-02T11:17:44.838Z,3.60
2018-09-02T11:18:44.837Z,3.80
2018-09-02T11:19:44.836Z,3.50
2018-09-02T11:20:44.833Z,4.00
2018-09-02T11:21:44.865Z,4.00
2018-09-02T11:22:44.837Z,6.80
2018-09-02T11:23:44.838Z,4.40
2018-09-02T11:24:44.840Z,4.20
2018-09-02T11:25:44.837Z,4.80
2018-09-02T11:26:44.861Z,5.00
2018-09-02T11:27:44.835Z,4.20
2018-09-02T11:28:44.834Z,4.50
2018-09-02T11:29:44.841Z,4.70
2018-09-02T11:30:44.838Z,4.80
2018-09-02T11:31:44.862Z,5.40
2018-09-02T11:32:44.836Z,4.90
2018-09-02T11:33:44.838Z,5.90
2018-09-02T11:34:44.838Z,5.00
2018-09-02T11:35:44.831Z,5.40
2018-09-02T11:36:44.867Z,5.40
2018-09-02T11:37:44.838Z,5.20
2018-09-02T11:38:44.834Z,5.40
2018-09-02T11:39:44.838Z,6.70
2018-09-02T11:40:44.834Z,5.90
2018-09-02T11:41:44.865Z,5.70
2018-09-02T11:42:44.837Z,5.20
2018-09-02T11:43:44.835Z,5.10
2018-09-02T11:44:44.835Z,5.60
2018-09-02T11:45:44.840Z,5.60
2018-09-02T11:46:44.889Z,5.40
2018-09-02T11:47:44.837Z,5.90
2018-09-02T11:48:44.833Z,6.10
2018-09-02T11:49:45.740Z,5.40
2018-09-02T11:50:44.831Z,6.30
2018-09-02T11:51:44.860Z,6.40
2018-09-02T11:52:44.837Z,6.70
2018-09-02T11:53:44.828Z,6.10
2018-09-02T11:54:44.834Z,5.60
2018-09-02T11:55:44.836Z,6.10
2018-09-02T11:56:44.862Z,6.80
2018-09-02T11:57:44.903Z,6.60
2018-09-02T11:58:44.833Z,6.10
2018-09-02T11:59:44.842Z,7.00
2018-09-02T12:00:44.835Z,5.80
2018-09-02T12:01:44.863Z,5.40
2018-09-02T12:02:44.830Z,5.00
2018-09-02T12:03:44.838Z,5.70
2018-09-02T12:04:44.840Z,5.50
2018-09-02T12:05:44.833Z,6.00
2018-09-02T12:06:44.858Z,5.80
2018-09-02T12:07:44.832Z,5.80
2018-09-02T12:08:44.831Z,5.80
2018-09-02T12:09:44.837Z,5.50
2018-09-02T12:10:44.830Z,5.90
2018-09-02T12:11:44.967Z,6.10
2018-09-02T12:12:44.836Z,5.80
2018-09-02T12:13:44.830Z,5.90
2018-09-02T12:14:44.836Z,5.40
2018-09-02T12:15:44.831Z,5.70
2018-09-02T12:16:44.861Z,5.90
2018-09-02T12:17:44.832Z,5.70
2018-09-02T12:18:44.831Z,6.00
2018-09-02T12:19:44.832Z,5.60
2018-09-02T12:20:44.836Z,6.50
2018-09-02T12:21:44.864Z,6.10
2018-09-02T12:22:44.829Z,6.30
2018-09-02T12:23:44.831Z,6.30
2018-09-02T12:24:44.833Z,6.20
2018-09-02T12:25:44.868Z,6.30
2018-09-02T12:26:44.830Z,6.30
2018-09-02T12:27:44.875Z,6.80
2018-09-02T12:28:45.753Z,6.20
2018-09-02T12:29:44.837Z,7.30
2018-09-02T12:30:44.837Z,6.70
2018-09-02T12:31:44.860Z,6.60
2018-09-02T12:32:44.832Z,6.30
2018-09-02T12:33:44.832Z,6.70
2018-09-02T12:34:44.829Z,6.90
2018-09-02T12:35:44.864Z,6.90
2018-09-02T12:36:44.837Z,6.40
2018-09-02T12:37:44.834Z,6.50
2018-09-02T12:38:45.758Z,6.80
2018-09-02T12:39:44.827Z,7.30
2018-09-02T12:40:44.865Z,7.30
2018-09-02T12:41:44.833Z,7.30
2018-09-02T12:42:44.861Z,7.80
2018-09-02T12:43:44.834Z,7.20
2018-09-02T12:44:44.836Z,7.90
2018-09-02T12:45:44.866Z,7.70
2018-09-02T12:46:44.836Z,7.70
2018-09-02T12:47:44.912Z,8.00
2018-09-02T12:48:44.839Z,8.40
2018-09-02T12:49:44.838Z,8.50
2018-09-02T12:50:44.866Z,7.70
2018-09-02T12:51:44.839Z,7.80
2018-09-02T12:52:44.841Z,8.80
2018-09-02T12:53:44.844Z,9.30
2018-09-02T12:54:44.839Z,8.20
2018-09-02T12:55:44.867Z,8.60
2018-09-02T12:56:44.841Z,8.70
2018-09-02T12:57:44.839Z,8.20
2018-09-02T12:58:44.840Z,8.70
2018-09-02T12:59:44.843Z,9.40
2018-09-02T13:00:44.868Z,9.30
2018-09-02T13:01:44.840Z,8.80
2018-09-02T13:02:44.842Z,11.60
2018-09-02T13:03:45.757Z,9.50
2018-09-02T13:04:45.756Z,10.80
2018-09-02T13:05:44.868Z,11.90
2018-09-02T13:06:44.839Z,11.90